sensor_id;sensor_type;location;lat;lon;timestamp;P1;durP1;ratioP1;P2;durP2;ratioP2
53674;SDS011;39574;50.534;8.500;2023-02-15T00:00:49;32.3;;;14.3;;
53674;SDS011;39574;50.534;8.500;2023-02-15T00:05:47;30.2;;;13.8;;
53674;SDS011;39574;50.534;8.500;2023-02-15T00:10:47;29.3;;;13.7;;
53674;SDS011;39574;50.534;8.500;2023-02-15T00:15:45;37.8;;;14.9;;
53674;SDS011;39574;50.534;8.500;2023-02-15T00:20:43;37.1;;;15.1;;
53674;SDS011;39574;50.534;8.500;2023-02-15T00:25:42;39.3;;;16.2;;
53674;SDS011;39574;50.534;8.500;2023-02-15T00:30:41;36.6;;;15.4;;
53674;SDS011;39574;50.534;8.500;2023-02-15T00:35:39;53.0;;;16.5;;
53674;SDS011;39574;50.534;8.500;2023-02-15T00:40:38;49.5;;;16.5;;
53674;SDS011;39574;50.534;8.500;2023-02-15T00:45:36;41.7;;;15.2;;
53674;SDS011;39574;50.534;8.500;2023-02-15T00:50:35;36.6;;;14.8;;
53674;SDS011;39574;50.534;8.500;2023-02-15T00:55:34;31.4;;;14.4;;
53674;SDS011;39574;50.534;8.500;2023-02-15T01:00:32;33.5;;;15.1;;
53674;SDS011;39574;50.534;8.500;2023-02-15T01:05:31;33.0;;;15.2;;
53674;SDS011;39574;50.534;8.500;2023-02-15T01:10:30;35.9;;;16.1;;
53674;SDS011;39574;50.534;8.500;2023-02-15T01:15:29;36.9;;;15.9;;
53674;SDS011;39574;50.534;8.500;2023-02-15T01:20:27;39.7;;;15.9;;
53674;SDS011;39574;50.534;8.500;2023-02-15T01:25:26;36.5;;;15.2;;
53674;SDS011;39574;50.534;8.500;2023-02-15T01:30:24;34.4;;;14.5;;
53674;SDS011;39574;50.534;8.500;2023-02-15T01:35:27;34.3;;;14.3;;
53674;SDS011;39574;50.534;8.500;2023-02-15T01:40:22;33.0;;;13.5;;
53674;SDS011;39574;50.534;8.500;2023-02-15T01:45:21;33.5;;;14.3;;
53674;SDS011;39574;50.534;8.500;2023-02-15T01:50:20;32.5;;;14.4;;
53674;SDS011;39574;50.534;8.500;2023-02-15T01:55:17;34.5;;;15.3;;
53674;SDS011;39574;50.534;8.500;2023-02-15T02:00:16;33.9;;;15.1;;
53674;SDS011;39574;50.534;8.500;2023-02-15T02:05:15;35.2;;;14.9;;
53674;SDS011;39574;50.534;8.500;2023-02-15T02:15:12;33.9;;;14.1;;
53674;SDS011;39574;50.534;8.500;2023-02-15T02:20:15;31.3;;;13.8;;
53674;SDS011;39574;50.534;8.500;2023-02-15T02:25:12;33.4;;;14.6;;
53674;SDS011;39574;50.534;8.500;2023-02-15T02:30:24;36.0;;;14.8;;
53674;SDS011;39574;50.534;8.500;2023-02-15T02:35:08;37.5;;;14.7;;
53674;SDS011;39574;50.534;8.500;2023-02-15T02:40:07;35.2;;;14.2;;
53674;SDS011;39574;50.534;8.500;2023-02-15T02:45:05;34.0;;;14.4;;
53674;SDS011;39574;50.534;8.500;2023-02-15T02:50:04;56.6;;;16.0;;
53674;SDS011;39574;50.534;8.500;2023-02-15T02:55:01;51.8;;;15.9;;
53674;SDS011;39574;50.534;8.500;2023-02-15T03:00:00;44.3;;;15.2;;
53674;SDS011;39574;50.534;8.500;2023-02-15T03:04:59;35.3;;;13.9;;
53674;SDS011;39574;50.534;8.500;2023-02-15T03:09:58;27.7;;;13.1;;
53674;SDS011;39574;50.534;8.500;2023-02-15T03:14:56;25.8;;;12.3;;
53674;SDS011;39574;50.534;8.500;2023-02-15T03:19:55;24.9;;;11.8;;
53674;SDS011;39574;50.534;8.500;2023-02-15T03:24:53;26.7;;;12.4;;
53674;SDS011;39574;50.534;8.500;2023-02-15T03:29:53;38.0;;;13.2;;
53674;SDS011;39574;50.534;8.500;2023-02-15T03:34:50;35.8;;;12.7;;
53674;SDS011;39574;50.534;8.500;2023-02-15T03:39:50;39.4;;;12.7;;
53674;SDS011;39574;50.534;8.500;2023-02-15T03:44:54;33.5;;;11.8;;
53674;SDS011;39574;50.534;8.500;2023-02-15T03:49:47;30.6;;;11.8;;
53674;SDS011;39574;50.534;8.500;2023-02-15T03:54:45;28.1;;;11.7;;
53674;SDS011;39574;50.534;8.500;2023-02-15T03:59:43;33.8;;;12.7;;
53674;SDS011;39574;50.534;8.500;2023-02-15T04:04:44;39.8;;;13.5;;
53674;SDS011;39574;50.534;8.500;2023-02-15T04:09:41;35.0;;;12.8;;
53674;SDS011;39574;50.534;8.500;2023-02-15T04:14:39;31.4;;;12.4;;
53674;SDS011;39574;50.534;8.500;2023-02-15T04:19:38;45.4;;;12.8;;
53674;SDS011;39574;50.534;8.500;2023-02-15T04:24:37;38.1;;;11.6;;
53674;SDS011;39574;50.534;8.500;2023-02-15T04:29:35;32.4;;;11.2;;
53674;SDS011;39574;50.534;8.500;2023-02-15T04:34:34;28.9;;;11.0;;
53674;SDS011;39574;50.534;8.500;2023-02-15T04:39:33;26.6;;;11.7;;
53674;SDS011;39574;50.534;8.500;2023-02-15T04:44:31;33.1;;;12.4;;
53674;SDS011;39574;50.534;8.500;2023-02-15T04:49:30;30.3;;;12.0;;
53674;SDS011;39574;50.534;8.500;2023-02-15T04:54:28;30.2;;;12.6;;
53674;SDS011;39574;50.534;8.500;2023-02-15T04:59:27;29.3;;;12.7;;
53674;SDS011;39574;50.534;8.500;2023-02-15T05:04:26;26.4;;;12.1;;
53674;SDS011;39574;50.534;8.500;2023-02-15T05:09:24;27.8;;;12.9;;
53674;SDS011;39574;50.534;8.500;2023-02-15T05:14:23;26.8;;;12.6;;
53674;SDS011;39574;50.534;8.500;2023-02-15T05:19:22;26.8;;;12.9;;
53674;SDS011;39574;50.534;8.500;2023-02-15T05:24:20;29.2;;;13.8;;
53674;SDS011;39574;50.534;8.500;2023-02-15T05:29:19;30.4;;;14.5;;
53674;SDS011;39574;50.534;8.500;2023-02-15T05:34:18;32.7;;;15.5;;
53674;SDS011;39574;50.534;8.500;2023-02-15T05:39:16;31.6;;;15.1;;
53674;SDS011;39574;50.534;8.500;2023-02-15T05:44:15;30.8;;;14.7;;
53674;SDS011;39574;50.534;8.500;2023-02-15T05:49:13;30.0;;;14.0;;
53674;SDS011;39574;50.534;8.500;2023-02-15T05:54:12;28.2;;;13.3;;
53674;SDS011;39574;50.534;8.500;2023-02-15T05:59:11;29.0;;;13.8;;
53674;SDS011;39574;50.534;8.500;2023-02-15T06:04:09;29.7;;;13.8;;
53674;SDS011;39574;50.534;8.500;2023-02-15T06:09:10;29.5;;;13.8;;
53674;SDS011;39574;50.534;8.500;2023-02-15T06:14:07;29.6;;;14.1;;
53674;SDS011;39574;50.534;8.500;2023-02-15T06:19:05;30.0;;;14.5;;
53674;SDS011;39574;50.534;8.500;2023-02-15T06:24:04;30.2;;;14.5;;
53674;SDS011;39574;50.534;8.500;2023-02-15T06:29:02;32.0;;;15.2;;
53674;SDS011;39574;50.534;8.500;2023-02-15T06:39:00;33.7;;;15.9;;
53674;SDS011;39574;50.534;8.500;2023-02-15T06:43:58;32.3;;;15.4;;
53674;SDS011;39574;50.534;8.500;2023-02-15T06:48:57;41.8;;;17.8;;
53674;SDS011;39574;50.534;8.500;2023-02-15T06:53:56;40.0;;;17.8;;
53674;SDS011;39574;50.534;8.500;2023-02-15T06:58:54;39.2;;;17.4;;
53674;SDS011;39574;50.534;8.500;2023-02-15T07:03:53;36.7;;;16.6;;
53674;SDS011;39574;50.534;8.500;2023-02-15T07:08:52;34.0;;;15.9;;
53674;SDS011;39574;50.534;8.500;2023-02-15T07:13:51;38.9;;;16.6;;
53674;SDS011;39574;50.534;8.500;2023-02-15T07:18:49;37.9;;;16.3;;
53674;SDS011;39574;50.534;8.500;2023-02-15T07:23:47;35.2;;;15.4;;
53674;SDS011;39574;50.534;8.500;2023-02-15T07:28:46;32.3;;;14.5;;
53674;SDS011;39574;50.534;8.500;2023-02-15T07:33:45;33.2;;;14.6;;
53674;SDS011;39574;50.534;8.500;2023-02-15T07:38:43;33.1;;;14.5;;
53674;SDS011;39574;50.534;8.500;2023-02-15T07:43:43;32.8;;;14.3;;
53674;SDS011;39574;50.534;8.500;2023-02-15T07:48:41;36.0;;;15.0;;
53674;SDS011;39574;50.534;8.500;2023-02-15T07:53:40;35.1;;;15.1;;
53674;SDS011;39574;50.534;8.500;2023-02-15T07:58:38;36.5;;;16.0;;
53674;SDS011;39574;50.534;8.500;2023-02-15T08:03:36;36.3;;;16.4;;
53674;SDS011;39574;50.534;8.500;2023-02-15T08:08:35;38.1;;;17.0;;
53674;SDS011;39574;50.534;8.500;2023-02-15T08:13:34;39.3;;;17.1;;
53674;SDS011;39574;50.534;8.500;2023-02-15T08:18:32;38.6;;;17.0;;
53674;SDS011;39574;50.534;8.500;2023-02-15T08:23:31;37.3;;;16.8;;
53674;SDS011;39574;50.534;8.500;2023-02-15T08:28:30;37.8;;;16.7;;
53674;SDS011;39574;50.534;8.500;2023-02-15T08:33:28;37.1;;;17.2;;
53674;SDS011;39574;50.534;8.500;2023-02-15T08:38:27;36.7;;;17.4;;
53674;SDS011;39574;50.534;8.500;2023-02-15T08:43:26;38.9;;;18.1;;
53674;SDS011;39574;50.534;8.500;2023-02-15T08:48:24;36.2;;;17.1;;
53674;SDS011;39574;50.534;8.500;2023-02-15T08:53:23;36.1;;;16.9;;
53674;SDS011;39574;50.534;8.500;2023-02-15T08:58:22;39.8;;;18.6;;
53674;SDS011;39574;50.534;8.500;2023-02-15T09:03:20;41.6;;;19.3;;
53674;SDS011;39574;50.534;8.500;2023-02-15T09:08:19;42.6;;;19.4;;
53674;SDS011;39574;50.534;8.500;2023-02-15T09:13:18;41.6;;;19.1;;
53674;SDS011;39574;50.534;8.500;2023-02-15T09:18:16;42.0;;;19.5;;
53674;SDS011;39574;50.534;8.500;2023-02-15T09:28:14;40.9;;;19.1;;
53674;SDS011;39574;50.534;8.500;2023-02-15T09:33:12;40.6;;;18.8;;
53674;SDS011;39574;50.534;8.500;2023-02-15T09:38:11;42.9;;;18.7;;
53674;SDS011;39574;50.534;8.500;2023-02-15T09:43:13;41.6;;;18.2;;
53674;SDS011;39574;50.534;8.500;2023-02-15T09:48:40;45.0;;;20.1;;
53674;SDS011;39574;50.534;8.500;2023-02-15T09:53:12;48.5;;;21.2;;
53674;SDS011;39574;50.534;8.500;2023-02-15T09:58:08;47.8;;;21.4;;
53674;SDS011;39574;50.534;8.500;2023-02-15T10:03:10;48.2;;;22.6;;
53674;SDS011;39574;50.534;8.500;2023-02-15T10:08:11;52.9;;;24.4;;
53674;SDS011;39574;50.534;8.500;2023-02-15T10:13:06;56.2;;;26.8;;
53674;SDS011;39574;50.534;8.500;2023-02-15T10:18:05;56.6;;;27.0;;
53674;SDS011;39574;50.534;8.500;2023-02-15T10:23:05;49.9;;;23.7;;
53674;SDS011;39574;50.534;8.500;2023-02-15T10:27:59;46.4;;;22.3;;
53674;SDS011;39574;50.534;8.500;2023-02-15T10:32:58;46.8;;;22.3;;
53674;SDS011;39574;50.534;8.500;2023-02-15T10:37:59;50.3;;;23.5;;
53674;SDS011;39574;50.534;8.500;2023-02-15T10:42:59;51.1;;;24.0;;
53674;SDS011;39574;50.534;8.500;2023-02-15T10:47:56;50.7;;;22.9;;
53674;SDS011;39574;50.534;8.500;2023-02-15T10:52:55;48.2;;;22.1;;
53674;SDS011;39574;50.534;8.500;2023-02-15T10:57:51;47.5;;;21.9;;
53674;SDS011;39574;50.534;8.500;2023-02-15T11:02:53;47.5;;;22.2;;
53674;SDS011;39574;50.534;8.500;2023-02-15T11:07:48;47.6;;;22.1;;
53674;SDS011;39574;50.534;8.500;2023-02-15T11:12:47;45.7;;;21.4;;
53674;SDS011;39574;50.534;8.500;2023-02-15T11:17:46;44.1;;;21.0;;
53674;SDS011;39574;50.534;8.500;2023-02-15T11:22:46;42.1;;;20.8;;
53674;SDS011;39574;50.534;8.500;2023-02-15T11:32:43;42.8;;;21.5;;
53674;SDS011;39574;50.534;8.500;2023-02-15T11:37:42;43.1;;;21.6;;
53674;SDS011;39574;50.534;8.500;2023-02-15T11:42:39;42.8;;;21.0;;
53674;SDS011;39574;50.534;8.500;2023-02-15T11:47:37;40.5;;;19.9;;
53674;SDS011;39574;50.534;8.500;2023-02-15T11:52:36;42.6;;;21.0;;
53674;SDS011;39574;50.534;8.500;2023-02-15T11:57:37;44.4;;;22.2;;
53674;SDS011;39574;50.534;8.500;2023-02-15T12:02:35;44.7;;;21.9;;
53674;SDS011;39574;50.534;8.500;2023-02-15T12:07:34;45.1;;;22.4;;
53674;SDS011;39574;50.534;8.500;2023-02-15T12:12:32;44.6;;;22.4;;
53674;SDS011;39574;50.534;8.500;2023-02-15T12:17:31;44.1;;;22.2;;
53674;SDS011;39574;50.534;8.500;2023-02-15T12:22:30;42.9;;;21.6;;
53674;SDS011;39574;50.534;8.500;2023-02-15T12:27:28;43.7;;;22.1;;
53674;SDS011;39574;50.534;8.500;2023-02-15T12:32:27;45.1;;;22.8;;
53674;SDS011;39574;50.534;8.500;2023-02-15T12:37:25;46.7;;;23.3;;
53674;SDS011;39574;50.534;8.500;2023-02-15T12:42:24;48.3;;;23.9;;
53674;SDS011;39574;50.534;8.500;2023-02-15T12:47:22;46.9;;;23.6;;
53674;SDS011;39574;50.534;8.500;2023-02-15T12:52:23;42.7;;;22.0;;
53674;SDS011;39574;50.534;8.500;2023-02-15T12:57:22;38.9;;;20.6;;
53674;SDS011;39574;50.534;8.500;2023-02-15T13:02:20;38.3;;;20.3;;
53674;SDS011;39574;50.534;8.500;2023-02-15T13:07:18;37.1;;;19.6;;
53674;SDS011;39574;50.534;8.500;2023-02-15T13:12:17;35.8;;;18.9;;
53674;SDS011;39574;50.534;8.500;2023-02-15T13:17:15;35.0;;;18.2;;
53674;SDS011;39574;50.534;8.500;2023-02-15T13:22:14;34.0;;;17.8;;
53674;SDS011;39574;50.534;8.500;2023-02-15T13:27:14;34.3;;;18.3;;
53674;SDS011;39574;50.534;8.500;2023-02-15T13:32:12;34.0;;;18.6;;
53674;SDS011;39574;50.534;8.500;2023-02-15T13:37:12;33.4;;;18.3;;
53674;SDS011;39574;50.534;8.500;2023-02-15T13:42:13;34.4;;;18.4;;
53674;SDS011;39574;50.534;8.500;2023-02-15T13:47:11;36.0;;;19.1;;
53674;SDS011;39574;50.534;8.500;2023-02-15T13:52:08;37.4;;;19.7;;
53674;SDS011;39574;50.534;8.500;2023-02-15T13:57:10;37.6;;;19.7;;
53674;SDS011;39574;50.534;8.500;2023-02-15T14:02:23;36.5;;;19.5;;
53674;SDS011;39574;50.534;8.500;2023-02-15T14:07:06;37.1;;;19.7;;
53674;SDS011;39574;50.534;8.500;2023-02-15T14:12:11;39.4;;;20.6;;
53674;SDS011;39574;50.534;8.500;2023-02-15T14:17:01;42.6;;;21.9;;
53674;SDS011;39574;50.534;8.500;2023-02-15T14:21:59;43.7;;;22.3;;
53674;SDS011;39574;50.534;8.500;2023-02-15T14:26:59;43.9;;;22.5;;
53674;SDS011;39574;50.534;8.500;2023-02-15T14:31:57;44.4;;;22.8;;
53674;SDS011;39574;50.534;8.500;2023-02-15T14:36:54;43.0;;;22.3;;
53674;SDS011;39574;50.534;8.500;2023-02-15T14:41:53;43.4;;;22.1;;
53674;SDS011;39574;50.534;8.500;2023-02-15T14:46:52;42.6;;;21.8;;
53674;SDS011;39574;50.534;8.500;2023-02-15T14:51:55;43.6;;;21.9;;
53674;SDS011;39574;50.534;8.500;2023-02-15T15:01:52;42.8;;;21.7;;
53674;SDS011;39574;50.534;8.500;2023-02-15T15:06:55;41.7;;;21.5;;
53674;SDS011;39574;50.534;8.500;2023-02-15T15:11:46;42.0;;;21.5;;
53674;SDS011;39574;50.534;8.500;2023-02-15T15:16:47;46.3;;;23.7;;
53674;SDS011;39574;50.534;8.500;2023-02-15T15:22:02;46.7;;;23.7;;
53674;SDS011;39574;50.534;8.500;2023-02-15T15:26:41;46.2;;;23.3;;
53674;SDS011;39574;50.534;8.500;2023-02-15T15:31:41;45.2;;;22.4;;
53674;SDS011;39574;50.534;8.500;2023-02-15T15:36:46;43.2;;;21.3;;
53674;SDS011;39574;50.534;8.500;2023-02-15T15:41:39;44.1;;;22.2;;
53674;SDS011;39574;50.534;8.500;2023-02-15T15:46:42;46.3;;;22.8;;
53674;SDS011;39574;50.534;8.500;2023-02-15T15:51:35;47.3;;;22.8;;
53674;SDS011;39574;50.534;8.500;2023-02-15T15:56:34;49.0;;;23.5;;
53674;SDS011;39574;50.534;8.500;2023-02-15T16:01:34;49.0;;;23.2;;
53674;SDS011;39574;50.534;8.500;2023-02-15T16:06:33;45.9;;;22.1;;
53674;SDS011;39574;50.534;8.500;2023-02-15T16:11:30;45.4;;;22.2;;
53674;SDS011;39574;50.534;8.500;2023-02-15T16:16:28;45.8;;;22.2;;
53674;SDS011;39574;50.534;8.500;2023-02-15T16:21:28;45.7;;;22.3;;
53674;SDS011;39574;50.534;8.500;2023-02-15T16:26:34;45.9;;;21.9;;
53674;SDS011;39574;50.534;8.500;2023-02-15T16:31:24;46.7;;;22.5;;
53674;SDS011;39574;50.534;8.500;2023-02-15T16:36:24;49.6;;;23.6;;
53674;SDS011;39574;50.534;8.500;2023-02-15T16:41:23;49.6;;;23.4;;
53674;SDS011;39574;50.534;8.500;2023-02-15T16:46:22;51.0;;;24.1;;
53674;SDS011;39574;50.534;8.500;2023-02-15T16:51:20;50.0;;;24.1;;
53674;SDS011;39574;50.534;8.500;2023-02-15T16:56:21;50.7;;;24.3;;
53674;SDS011;39574;50.534;8.500;2023-02-15T17:01:17;51.3;;;24.4;;
53674;SDS011;39574;50.534;8.500;2023-02-15T17:06:18;50.6;;;23.8;;
53674;SDS011;39574;50.534;8.500;2023-02-15T17:11:15;51.8;;;23.7;;
53674;SDS011;39574;50.534;8.500;2023-02-15T17:16:21;49.6;;;22.4;;
53674;SDS011;39574;50.534;8.500;2023-02-15T17:21:12;49.0;;;22.3;;
53674;SDS011;39574;50.534;8.500;2023-02-15T17:26:11;47.6;;;22.0;;
53674;SDS011;39574;50.534;8.500;2023-02-15T17:31:09;43.4;;;20.6;;
53674;SDS011;39574;50.534;8.500;2023-02-15T17:36:09;41.0;;;20.2;;
53674;SDS011;39574;50.534;8.500;2023-02-15T17:41:06;39.8;;;19.6;;
53674;SDS011;39574;50.534;8.500;2023-02-15T17:46:05;37.9;;;18.7;;
53674;SDS011;39574;50.534;8.500;2023-02-15T17:51:04;36.5;;;18.1;;
53674;SDS011;39574;50.534;8.500;2023-02-15T17:56:02;34.0;;;17.2;;
53674;SDS011;39574;50.534;8.500;2023-02-15T18:01:02;32.4;;;16.7;;
53674;SDS011;39574;50.534;8.500;2023-02-15T18:05:59;32.0;;;16.7;;
53674;SDS011;39574;50.534;8.500;2023-02-15T18:10:58;36.4;;;18.0;;
53674;SDS011;39574;50.534;8.500;2023-02-15T18:15:57;42.4;;;20.6;;
53674;SDS011;39574;50.534;8.500;2023-02-15T18:20:56;44.0;;;21.4;;
53674;SDS011;39574;50.534;8.500;2023-02-15T18:25:54;44.7;;;21.6;;
53674;SDS011;39574;50.534;8.500;2023-02-15T18:30:53;46.7;;;22.4;;
53674;SDS011;39574;50.534;8.500;2023-02-15T18:35:52;43.4;;;21.1;;
53674;SDS011;39574;50.534;8.500;2023-02-15T18:40:50;40.5;;;20.0;;
53674;SDS011;39574;50.534;8.500;2023-02-15T18:45:49;37.5;;;19.2;;
53674;SDS011;39574;50.534;8.500;2023-02-15T18:50:48;36.9;;;18.9;;
53674;SDS011;39574;50.534;8.500;2023-02-15T18:55:47;36.1;;;18.6;;
53674;SDS011;39574;50.534;8.500;2023-02-15T19:00:45;36.5;;;18.7;;
53674;SDS011;39574;50.534;8.500;2023-02-15T19:05:44;36.6;;;18.6;;
53674;SDS011;39574;50.534;8.500;2023-02-15T19:10:43;36.5;;;18.4;;
53674;SDS011;39574;50.534;8.500;2023-02-15T19:15:41;37.5;;;18.9;;
53674;SDS011;39574;50.534;8.500;2023-02-15T19:20:41;37.0;;;18.6;;
53674;SDS011;39574;50.534;8.500;2023-02-15T19:25:39;35.6;;;18.4;;
53674;SDS011;39574;50.534;8.500;2023-02-15T19:30:37;35.3;;;18.4;;
53674;SDS011;39574;50.534;8.500;2023-02-15T19:35:36;34.1;;;17.7;;
53674;SDS011;39574;50.534;8.500;2023-02-15T19:40:35;33.0;;;17.1;;
53674;SDS011;39574;50.534;8.500;2023-02-15T19:45:33;42.0;;;20.3;;
53674;SDS011;39574;50.534;8.500;2023-02-15T19:50:32;57.7;;;27.1;;
53674;SDS011;39574;50.534;8.500;2023-02-15T19:55:31;53.9;;;25.5;;
53674;SDS011;39574;50.534;8.500;2023-02-15T20:00:30;49.8;;;23.7;;
53674;SDS011;39574;50.534;8.500;2023-02-15T20:05:29;43.9;;;20.9;;
53674;SDS011;39574;50.534;8.500;2023-02-15T20:10:27;39.4;;;19.2;;
53674;SDS011;39574;50.534;8.500;2023-02-15T20:15:26;38.5;;;18.9;;
53674;SDS011;39574;50.534;8.500;2023-02-15T20:20:25;38.5;;;19.1;;
53674;SDS011;39574;50.534;8.500;2023-02-15T20:25:23;38.0;;;19.0;;
53674;SDS011;39574;50.534;8.500;2023-02-15T20:30:22;37.2;;;18.5;;
53674;SDS011;39574;50.534;8.500;2023-02-15T20:35:20;36.9;;;18.6;;
53674;SDS011;39574;50.534;8.500;2023-02-15T20:40:20;36.4;;;18.6;;
53674;SDS011;39574;50.534;8.500;2023-02-15T20:45:18;35.9;;;18.3;;
53674;SDS011;39574;50.534;8.500;2023-02-15T20:50:17;35.1;;;18.2;;
53674;SDS011;39574;50.534;8.500;2023-02-15T20:55:16;35.3;;;18.0;;
53674;SDS011;39574;50.534;8.500;2023-02-15T21:00:14;34.4;;;17.6;;
53674;SDS011;39574;50.534;8.500;2023-02-15T21:05:13;33.4;;;17.2;;
53674;SDS011;39574;50.534;8.500;2023-02-15T21:10:14;34.4;;;17.6;;
53674;SDS011;39574;50.534;8.500;2023-02-15T21:15:22;35.9;;;17.9;;
53674;SDS011;39574;50.534;8.500;2023-02-15T21:20:11;38.4;;;19.4;;
53674;SDS011;39574;50.534;8.500;2023-02-15T21:25:08;51.0;;;22.9;;
53674;SDS011;39574;50.534;8.500;2023-02-15T21:30:09;49.0;;;22.4;;
53674;SDS011;39574;50.534;8.500;2023-02-15T21:35:04;44.5;;;21.1;;
53674;SDS011;39574;50.534;8.500;2023-02-15T21:40:03;41.4;;;20.4;;
53674;SDS011;39574;50.534;8.500;2023-02-15T21:45:05;37.3;;;19.4;;
53674;SDS011;39574;50.534;8.500;2023-02-15T21:50:00;36.5;;;19.2;;
53674;SDS011;39574;50.534;8.500;2023-02-15T21:54:59;37.0;;;18.6;;
53674;SDS011;39574;50.534;8.500;2023-02-15T21:59:57;36.0;;;17.9;;
53674;SDS011;39574;50.534;8.500;2023-02-15T22:04:56;38.1;;;18.6;;
53674;SDS011;39574;50.534;8.500;2023-02-15T22:09:55;41.1;;;19.7;;
53674;SDS011;39574;50.534;8.500;2023-02-15T22:14:53;41.5;;;20.0;;
53674;SDS011;39574;50.534;8.500;2023-02-15T22:19:52;38.9;;;19.3;;
53674;SDS011;39574;50.534;8.500;2023-02-15T22:24:51;36.3;;;18.0;;
53674;SDS011;39574;50.534;8.500;2023-02-15T22:29:50;36.6;;;18.0;;
53674;SDS011;39574;50.534;8.500;2023-02-15T22:34:48;35.0;;;17.2;;
53674;SDS011;39574;50.534;8.500;2023-02-15T22:39:47;34.7;;;16.9;;
53674;SDS011;39574;50.534;8.500;2023-02-15T22:44:46;33.7;;;16.8;;
53674;SDS011;39574;50.534;8.500;2023-02-15T22:49:44;32.5;;;16.1;;
53674;SDS011;39574;50.534;8.500;2023-02-15T22:54:43;31.3;;;15.6;;
53674;SDS011;39574;50.534;8.500;2023-02-15T22:59:42;31.0;;;15.4;;
53674;SDS011;39574;50.534;8.500;2023-02-15T23:04:40;30.2;;;15.2;;
53674;SDS011;39574;50.534;8.500;2023-02-15T23:09:39;33.2;;;15.7;;
53674;SDS011;39574;50.534;8.500;2023-02-15T23:14:38;32.7;;;15.7;;
53674;SDS011;39574;50.534;8.500;2023-02-15T23:19:36;32.5;;;15.5;;
53674;SDS011;39574;50.534;8.500;2023-02-15T23:24:35;32.5;;;15.5;;
53674;SDS011;39574;50.534;8.500;2023-02-15T23:29:34;31.4;;;15.3;;
53674;SDS011;39574;50.534;8.500;2023-02-15T23:34:32;31.2;;;15.3;;
53674;SDS011;39574;50.534;8.500;2023-02-15T23:39:31;33.8;;;15.8;;
53674;SDS011;39574;50.534;8.500;2023-02-15T23:44:30;33.7;;;16.4;;
53674;SDS011;39574;50.534;8.500;2023-02-15T23:49:28;31.9;;;15.6;;
53674;SDS011;39574;50.534;8.500;2023-02-15T23:54:27;29.9;;;15.1;;
53674;SDS011;39574;50.534;8.500;2023-02-15T23:59:26;32.5;;;16.3;;
